Aérodrome :
LOGIN :

S'inscrire | Disclaimer

   EN    FR    IT 

 










Légende :    VFR   VFR Marginal   IFR   IFR Intensif   IFR Très Intensif
Visi : 
Plafond : 
>= 8 km
>= 3000ft
5 à 8 km
1000 à 3000 ft
1500m à 5 km
500 à 1000 ft
800 à 1500m
200 à 500 ft
< 800m
< 200 ft
Symboles :   Orages  Brouillard  Fortes neiges  Fortes précipitations  Vent > 20 kt
SIGMETs :   Divers  Orages  Givrage  Turbulence  Onde Orograph.  Cendres Volcan.






- Altitude de l'aérodrome : 1487 ft
- Code IATA : MUC


EDDM - München Franz Josef Strauss

DERNIER METAR :
  • 260520Z 22003KT CAVOK 00/00 Q1023 NOSIG

METARs EXPIRÉS :
  • 260450Z 22002KT 8000 BCFG NSC M02/M02 Q1023 NOSIG
  • 260420Z VRB01KT 4000 R26R/1400U BCFG NSC M03/M03 Q1022 BECMG 6000
  • 260350Z 17002KT 3500 R26R/1100U BCFG NSC M03/M03 Q1022 TEMPO 1200 FZFG
  • 260320Z 25001KT 3500 R26R/1800V1800D BCFG NSC M02/M02 Q1022 TEMPO 0800 FZFG
  • 260250Z 30001KT 3000 R26R/0900V0900D BCFG NSC M02/M02 Q1022 TEMPO 0800 FZFG

TAF COR TAF EDDM
Valide du 26 à 00h jusqu'au 27 à 06h UTC


252342Z 2600/2706 VRB03KT 1500 BCFG NSC
TEMPO 2600/2607 0700 FZFG
PROB30
TEMPO 2603/2606 0400 FZFG VV001
BECMG 2606/2609 25005KT 9999
BECMG 2618/2620 VRB03KT 2000 BCFG
BECMG 2620/2623 0300 FG VV001



MET'MAP, la Météo Aéronautique d'un coup d'oeil ! - Copyright ORBIFLY Décembre 2007 - Disclaimer

ORBIFLY MET'MAP TEAM :

Programmation & Développement : Alexandra Zaïnal
Sur une idée originale de : Baudouin d'Aumeries
Assistance à la programmation : Marc-Olivier Méhu
Soutien technique & logistique : Manuel Goepfert

Contact : metmap@orbifly.com




SOURCES & CREDITS :

   NOAA